Time;durP1;ratioP1;P1;durP2;ratioP2;P2;SDS_P1;SDS_P2;PMS_P1;PMS_P2;Temp;Humidity;BMP_temperature;BMP_pressure;BME280_temperature;BME280_humidity;BME280_pressure;Samples;Min_cycle;Max_cycle;Signal;HPM_P1;HPM_P2
2023/08/08 00:02:00;;;;;;;22.63;21.83;;;15.40;99.90;;;;;;5051469;28;20207;-65
2023/08/08 00:04:27;;;;;;;21.23;20.53;;;15.50;99.90;;;;;;5051392;28;20319;-65
2023/08/08 00:06:53;;;;;;;20.63;19.92;;;15.50;99.90;;;;;;5050906;28;20586;-66
2023/08/08 00:09:21;;;;;;;20.20;19.50;;;15.50;99.90;;;;;;5049950;28;20761;-65
2023/08/08 00:11:48;;;;;;;21.97;21.20;;;15.50;99.90;;;;;;5050631;28;20211;-63
2023/08/08 00:14:16;;;;;;;20.70;20.00;;;15.50;99.90;;;;;;5050423;28;20204;-65
2023/08/08 00:16:43;;;;;;;19.95;19.25;;;15.50;99.90;;;;;;5053073;28;20246;-64
2023/08/08 00:19:10;;;;;;;20.20;19.50;;;15.40;99.90;;;;;;5049697;28;20294;-65
2023/08/08 00:21:37;;;;;;;22.20;21.40;;;15.40;99.90;;;;;;5050724;28;20299;-63
2023/08/08 00:24:04;;;;;;;21.00;20.30;;;15.30;99.90;;;;;;5050695;28;20287;-65
2023/08/08 00:26:31;;;;;;;21.40;20.60;;;15.30;99.90;;;;;;5051317;28;20212;-63
2023/08/08 00:28:59;;;;;;;21.73;21.00;;;15.20;99.90;;;;;;5052695;28;20299;-67
2023/08/08 00:31:27;;;;;;;21.23;20.50;;;15.20;99.90;;;;;;5058968;28;20254;-66
2023/08/08 00:33:54;;;;;;;21.80;21.00;;;15.30;99.90;;;;;;5064038;28;20208;-66
2023/08/08 00:36:21;;;;;;;19.73;19.03;;;15.20;99.90;;;;;;5064843;28;20296;-64
2023/08/08 00:38:48;;;;;;;19.98;19.27;;;15.20;99.90;;;;;;5065395;28;20228;-67
2023/08/08 00:41:15;;;;;;;22.33;21.57;;;15.10;99.90;;;;;;5066594;28;20565;-63
2023/08/08 00:43:43;;;;;;;21.20;20.40;;;15.10;99.90;;;;;;5067213;28;20214;-64
2023/08/08 00:46:10;;;;;;;20.17;19.47;;;15.10;99.90;;;;;;5065748;28;20287;-64
2023/08/08 00:48:38;;;;;;;20.80;20.10;;;15.10;99.90;;;;;;5060800;28;20196;-64
2023/08/08 00:51:05;;;;;;;20.88;19.98;;;15.10;99.90;;;;;;5049764;28;20291;-65
2023/08/08 00:53:32;;;;;;;20.73;20.03;;;15.10;99.90;;;;;;5050062;28;20218;-65
2023/08/08 00:56:00;;;;;;;19.37;18.67;;;15.10;99.90;;;;;;5049803;28;20318;-65
2023/08/08 00:58:27;;;;;;;19.02;18.33;;;15.10;99.90;;;;;;5048719;28;20243;-66
2023/08/08 01:00:57;;;;;;;20.43;19.73;;;14.90;99.90;;;;;;5049027;28;20287;-64
2023/08/08 01:03:24;;;;;;;20.17;19.47;;;14.90;99.90;;;;;;5048949;28;20231;-65
2023/08/08 01:06:01;;;;;;;19.93;19.20;;;15.00;99.90;;;;;;5049447;28;20564;-67
2023/08/08 01:08:35;;;;;;;18.58;17.98;;;14.90;99.90;;;;;;5049225;28;20564;-64
2023/08/08 01:11:02;;;;;;;19.05;18.40;;;14.90;99.90;;;;;;5048896;28;20204;-65
2023/08/08 01:13:32;;;;;;;19.30;18.63;;;15.00;99.90;;;;;;5050137;28;20250;-66
2023/08/08 01:16:00;;;;;;;18.90;18.20;;;15.00;99.90;;;;;;5049608;28;20239;-66
2023/08/08 01:18:28;;;;;;;20.08;19.38;;;15.00;99.90;;;;;;5049391;28;20601;-67
2023/08/08 01:20:57;;;;;;;25.33;24.37;;;15.00;99.90;;;;;;5051940;28;20755;-64
2023/08/08 01:23:30;;;;;;;20.27;19.57;;;15.00;99.90;;;;;;5050194;28;20561;-65
2023/08/08 01:26:00;;;;;;;20.13;19.43;;;15.00;99.90;;;;;;5048919;28;20657;-65
2023/08/08 01:28:27;;;;;;;20.07;19.37;;;15.00;99.90;;;;;;5047620;28;20569;-64
2023/08/08 01:30:54;;;;;;;18.77;18.13;;;15.10;99.90;;;;;;5049169;28;20210;-66
2023/08/08 01:33:21;;;;;;;19.20;18.50;;;15.20;99.90;;;;;;5049958;28;20208;-63
2023/08/08 01:35:53;;;;;;;20.17;19.47;;;15.20;99.90;;;;;;5048734;28;20259;-64
2023/08/08 01:38:28;;;;;;;17.45;16.85;;;15.20;99.90;;;;;;5048563;28;20869;-66
2023/08/08 01:40:57;;;;;;;17.90;17.30;;;15.20;99.90;;;;;;5048318;28;20578;-64
2023/08/08 01:43:26;;;;;;;22.48;21.65;;;15.20;99.90;;;;;;5044922;28;20287;-66
2023/08/08 01:45:53;;;;;;;19.57;18.87;;;15.20;99.90;;;;;;5048631;28;20224;-65
2023/08/08 01:48:20;;;;;;;19.13;18.50;;;15.20;99.90;;;;;;5048751;28;20203;-66
2023/08/08 01:50:47;;;;;;;18.95;18.25;;;15.20;99.90;;;;;;5048087;28;20689;-65
2023/08/08 01:53:14;;;;;;;19.70;19.00;;;15.30;99.90;;;;;;5048612;28;20222;-63
2023/08/08 01:55:40;;;;;;;18.90;18.30;;;15.30;99.90;;;;;;5048504;28;20232;-64
2023/08/08 01:58:07;;;;;;;22.08;21.27;;;15.30;99.90;;;;;;5048580;28;20227;-63
2023/08/08 02:00:36;;;;;;;18.90;18.27;;;15.30;99.90;;;;;;5048053;28;20200;-63
2023/08/08 02:03:03;;;;;;;19.77;19.08;;;15.30;99.90;;;;;;5047832;28;20222;-64
2023/08/08 02:05:30;;;;;;;19.10;18.40;;;15.30;99.90;;;;;;5048746;28;20607;-65
2023/08/08 02:07:57;;;;;;;19.45;18.75;;;15.30;99.90;;;;;;5048567;28;20685;-65
2023/08/08 02:10:24;;;;;;;19.13;18.43;;;15.30;99.90;;;;;;5048102;28;20208;-64
2023/08/08 02:12:50;;;;;;;20.30;19.60;;;15.20;99.90;;;;;;5048513;28;20528;-64
2023/08/08 02:15:17;;;;;;;18.53;17.93;;;15.20;99.90;;;;;;5069297;22;20222;-67
2023/08/08 02:17:46;;;;;;;20.63;19.93;;;15.20;99.90;;;;;;5068615;28;20227;-68
2023/08/08 02:20:13;;;;;;;19.57;18.87;;;15.30;99.90;;;;;;5073126;28;20564;-66
2023/08/08 02:22:40;;;;;;;19.95;19.15;;;15.30;99.90;;;;;;5077947;28;20297;-69
2023/08/08 02:25:08;;;;;;;20.33;19.63;;;15.50;99.90;;;;;;5069101;28;20733;-64
2023/08/08 02:27:35;;;;;;;20.57;19.77;;;15.30;99.90;;;;;;5068699;28;20214;-67
2023/08/08 02:30:02;;;;;;;18.88;18.27;;;15.50;99.90;;;;;;5068097;28;20237;-67
2023/08/08 02:32:28;;;;;;;19.63;18.93;;;15.30;99.90;;;;;;5069096;28;20288;-67
2023/08/08 02:34:57;;;;;;;19.37;18.67;;;15.30;99.90;;;;;;5071779;28;20228;-65
2023/08/08 02:37:23;;;;;;;18.93;18.27;;;15.30;99.90;;;;;;5072315;28;20306;-67
2023/08/08 02:39:50;;;;;;;22.10;21.30;;;15.30;99.90;;;;;;5072513;28;20207;-67
2023/08/08 02:42:17;;;;;;;19.53;18.83;;;15.30;99.90;;;;;;5072620;28;20202;-65
2023/08/08 02:44:44;;;;;;;22.02;21.25;;;15.50;99.90;;;;;;5072550;28;20607;-65
2023/08/08 02:47:10;;;;;;;20.15;19.45;;;15.40;99.90;;;;;;5072587;28;20203;-65
2023/08/08 02:49:37;;;;;;;20.00;19.30;;;15.20;99.90;;;;;;5071684;28;20203;-66
2023/08/08 02:52:06;;;;;;;21.60;20.80;;;15.30;99.90;;;;;;5072952;28;20210;-68
2023/08/08 02:54:33;;;;;;;19.80;19.10;;;15.30;99.90;;;;;;5072373;28;20302;-65
2023/08/08 02:57:00;;;;;;;18.00;17.40;;;15.40;99.90;;;;;;5072464;28;20896;-67
2023/08/08 02:59:27;;;;;;;20.58;19.88;;;15.40;99.90;;;;;;5071338;28;20223;-66
2023/08/08 03:01:54;;;;;;;18.87;18.17;;;15.40;99.90;;;;;;5072490;28;20210;-66
2023/08/08 03:04:20;;;;;;;19.63;18.95;;;15.30;99.90;;;;;;5072208;28;20217;-67
2023/08/08 03:06:47;;;;;;;19.90;19.20;;;15.30;99.90;;;;;;5073053;28;20233;-65
2023/08/08 03:09:15;;;;;;;19.20;18.55;;;15.40;99.90;;;;;;5072516;28;20286;-64
2023/08/08 03:11:42;;;;;;;19.43;18.73;;;15.40;99.90;;;;;;5072712;28;20211;-67
2023/08/08 03:14:09;;;;;;;20.83;20.13;;;15.30;99.90;;;;;;5072253;28;20695;-66
2023/08/08 03:16:36;;;;;;;19.95;19.25;;;15.30;99.90;;;;;;5072147;28;20238;-68
2023/08/08 03:19:03;;;;;;;20.83;20.13;;;15.30;99.90;;;;;;5071763;28;20249;-64
2023/08/08 03:21:30;;;;;;;19.17;18.53;;;15.30;99.90;;;;;;5072390;28;20239;-67
2023/08/08 03:23:57;;;;;;;19.70;19.00;;;15.30;99.90;;;;;;5072899;28;20199;-65
2023/08/08 03:26:25;;;;;;;21.50;20.75;;;15.30;99.90;;;;;;5072728;28;20600;-66
2023/08/08 03:28:53;;;;;;;20.45;19.65;;;15.30;99.90;;;;;;5072749;28;20676;-66
2023/08/08 03:31:20;;;;;;;20.00;19.30;;;15.30;99.90;;;;;;5071731;28;20203;-68
2023/08/08 03:33:47;;;;;;;20.97;20.20;;;15.30;99.90;;;;;;5072104;28;20199;-66
2023/08/08 03:36:14;;;;;;;21.07;20.37;;;15.30;99.90;;;;;;5071930;28;20374;-66
2023/08/08 03:38:44;;;;;;;20.33;19.63;;;15.30;99.90;;;;;;5081590;28;20743;-65
2023/08/08 03:41:11;;;;;;;19.60;18.90;;;15.30;99.90;;;;;;5072431;28;20634;-68
2023/08/08 03:43:39;;;;;;;20.57;19.87;;;15.30;99.90;;;;;;5073092;28;20218;-66
2023/08/08 03:46:06;;;;;;;20.13;19.43;;;15.30;99.90;;;;;;5074846;28;20235;-66
2023/08/08 03:48:33;;;;;;;21.17;20.47;;;15.30;99.90;;;;;;5077572;28;20266;-68
2023/08/08 03:51:00;;;;;;;21.70;21.00;;;15.30;99.90;;;;;;5075067;28;20221;-67
2023/08/08 03:53:27;;;;;;;21.90;21.20;;;15.20;99.90;;;;;;5053346;28;20191;-67
2023/08/08 03:55:53;;;;;;;20.77;20.07;;;15.20;99.90;;;;;;5055284;28;20243;-65
2023/08/08 03:58:20;;;;;;;19.10;18.45;;;15.20;99.90;;;;;;5054527;28;20238;-66
2023/08/08 04:00:48;;;;;;;20.10;19.40;;;15.10;99.90;;;;;;5051946;28;20614;-65
2023/08/08 04:03:16;;;;;;;20.40;19.70;;;15.20;99.90;;;;;;5052627;28;20712;-66
2023/08/08 04:05:47;;;;;;;19.80;19.10;;;15.20;99.90;;;;;;5051948;28;20587;-66
2023/08/08 04:08:14;;;;;;;19.73;19.03;;;15.10;99.90;;;;;;5056545;28;20645;-67
2023/08/08 04:10:40;;;;;;;20.65;19.95;;;15.10;99.90;;;;;;5057898;28;20211;-66
2023/08/08 04:13:07;;;;;;;21.13;20.42;;;15.10;99.90;;;;;;5051404;28;20299;-68
2023/08/08 04:15:34;;;;;;;21.93;21.23;;;15.10;99.90;;;;;;5053422;28;20636;-67
2023/08/08 04:18:02;;;;;;;21.58;20.85;;;15.10;99.90;;;;;;5056476;28;20223;-67
2023/08/08 04:20:29;;;;;;;21.60;20.83;;;15.20;99.90;;;;;;5050488;28;20204;-68
2023/08/08 04:22:56;;;;;;;20.50;19.80;;;15.20;99.90;;;;;;5050986;28;20212;-66
2023/08/08 04:25:23;;;;;;;21.80;21.00;;;15.20;99.90;;;;;;5051063;28;20228;-66
2023/08/08 04:27:49;;;;;;;22.33;21.53;;;15.20;99.90;;;;;;5050923;28;20699;-68
2023/08/08 04:30:16;;;;;;;20.97;20.17;;;15.30;99.90;;;;;;5048945;28;20204;-65
2023/08/08 04:32:43;;;;;;;20.50;19.80;;;15.30;99.90;;;;;;5051651;28;20208;-66
2023/08/08 04:35:12;;;;;;;22.63;21.83;;;15.30;99.90;;;;;;5051767;28;20600;-66
2023/08/08 04:37:39;;;;;;;21.77;20.97;;;15.30;99.90;;;;;;5067970;28;20200;-65
2023/08/08 04:40:08;;;;;;;21.20;20.50;;;15.30;99.90;;;;;;5069676;28;20199;-67
2023/08/08 04:42:35;;;;;;;21.93;21.13;;;15.30;99.90;;;;;;5068934;28;20221;-64
2023/08/08 04:45:02;;;;;;;21.58;20.77;;;15.30;99.90;;;;;;5070092;28;20230;-65
2023/08/08 04:47:29;;;;;;;21.23;20.53;;;15.40;99.90;;;;;;5070188;28;20191;-65
2023/08/08 04:49:56;;;;;;;21.97;21.17;;;15.40;99.90;;;;;;5069530;28;20210;-66
2023/08/08 04:52:24;;;;;;;21.73;21.03;;;15.40;99.90;;;;;;5070489;28;20217;-65
2023/08/08 04:54:51;;;;;;;20.70;20.00;;;15.40;99.90;;;;;;5070420;28;20530;-66
2023/08/08 04:57:17;;;;;;;21.35;20.65;;;15.40;99.90;;;;;;5070309;28;20305;-66
2023/08/08 04:59:44;;;;;;;21.50;20.80;;;15.40;99.90;;;;;;5069009;28;20225;-65
2023/08/08 05:02:11;;;;;;;20.00;19.30;;;15.40;99.90;;;;;;5070037;28;20824;-67
2023/08/08 05:04:38;;;;;;;21.83;21.03;;;15.40;99.90;;;;;;5069940;28;20207;-66
2023/08/08 05:07:05;;;;;;;19.77;19.07;;;15.40;99.90;;;;;;5070526;28;20265;-65
2023/08/08 05:09:34;;;;;;;20.92;20.20;;;15.50;99.90;;;;;;5069882;28;20575;-66
2023/08/08 05:12:01;;;;;;;21.30;20.57;;;15.40;99.90;;;;;;5071725;28;20203;-66
2023/08/08 05:14:27;;;;;;;20.63;19.93;;;15.50;99.90;;;;;;5072156;28;20256;-66
2023/08/08 05:16:54;;;;;;;19.53;18.83;;;15.50;99.90;;;;;;5070037;28;20226;-66
2023/08/08 05:19:21;;;;;;;20.33;19.63;;;15.50;99.90;;;;;;5069534;28;20229;-69
2023/08/08 05:21:48;;;;;;;19.90;19.20;;;15.70;99.90;;;;;;5070642;28;20641;-64
2023/08/08 05:24:15;;;;;;;20.17;19.48;;;15.60;99.90;;;;;;5071268;28;20208;-65
2023/08/08 05:26:43;;;;;;;21.40;20.65;;;15.60;99.90;;;;;;5074229;28;20230;-66
2023/08/08 05:29:10;;;;;;;20.93;20.23;;;15.60;99.90;;;;;;5073030;28;20584;-66
2023/08/08 05:31:36;;;;;;;21.80;21.00;;;15.70;99.90;;;;;;5069955;28;20202;-66
2023/08/08 05:34:03;;;;;;;20.33;19.63;;;15.80;99.90;;;;;;5064813;28;20709;-66
2023/08/08 05:36:30;;;;;;;24.48;23.58;;;15.90;99.90;;;;;;5054910;28;20235;-65
2023/08/08 05:38:57;;;;;;;21.80;21.00;;;16.00;99.90;;;;;;5061564;28;20219;-66
2023/08/08 05:41:24;;;;;;;20.50;19.80;;;16.10;99.90;;;;;;5061175;28;20286;-67
2023/08/08 05:43:52;;;;;;;23.00;22.20;;;16.10;99.90;;;;;;5063926;28;20638;-66
2023/08/08 05:46:19;;;;;;;24.52;23.67;;;16.20;99.90;;;;;;5062541;28;20244;-66
2023/08/08 05:48:46;;;;;;;22.27;21.47;;;16.30;99.90;;;;;;5067243;28;20201;-67
2023/08/08 05:51:13;;;;;;;22.20;21.40;;;16.50;99.90;;;;;;5062401;28;20199;-65
2023/08/08 05:53:40;;;;;;;22.50;21.70;;;16.50;99.90;;;;;;5064661;28;20622;-68
2023/08/08 05:56:08;;;;;;;23.50;22.70;;;16.70;99.90;;;;;;5066177;28;20223;-67
2023/08/08 05:58:36;;;;;;;24.95;24.05;;;16.80;99.90;;;;;;5062384;28;20677;-66
2023/08/08 06:01:09;;;;;;;23.67;22.83;;;16.80;99.90;;;;;;5068880;28;20304;-66
2023/08/08 06:03:37;;;;;;;23.67;22.87;;;17.00;99.90;;;;;;5067354;28;20571;-65
2023/08/08 06:06:04;;;;;;;24.40;23.60;;;17.00;99.90;;;;;;5067383;28;20253;-66
2023/08/08 06:08:31;;;;;;;24.90;24.00;;;16.90;99.90;;;;;;5059165;28;20294;-65
2023/08/08 06:10:58;;;;;;;25.83;24.93;;;16.90;99.90;;;;;;5064635;28;20732;-66
2023/08/08 06:13:25;;;;;;;23.70;22.88;;;16.90;99.90;;;;;;5076936;28;20199;-67
2023/08/08 06:15:52;;;;;;;24.08;23.25;;;17.00;99.90;;;;;;5083594;28;20792;-66
2023/08/08 06:18:20;;;;;;;21.05;20.30;;;17.00;99.90;;;;;;5075553;28;20280;-65
2023/08/08 06:20:47;;;;;;;23.58;22.75;;;17.00;99.90;;;;;;5075004;28;20203;-66
2023/08/08 06:23:14;;;;;;;23.10;22.27;;;17.10;99.90;;;;;;5075816;28;20262;-66
2023/08/08 06:25:41;;;;;;;23.17;22.33;;;17.10;99.90;;;;;;5074396;28;20226;-68
2023/08/08 06:28:08;;;;;;;20.07;19.37;;;17.10;99.90;;;;;;5083765;28;20209;-67
2023/08/08 06:30:35;;;;;;;20.67;19.97;;;17.40;99.90;;;;;;5074523;28;20203;-66
2023/08/08 06:33:02;;;;;;;15.93;15.38;;;17.50;99.90;;;;;;5072713;28;20672;-67
2023/08/08 06:35:30;;;;;;;16.13;15.57;;;17.60;99.90;;;;;;5074164;28;20227;-68
2023/08/08 06:37:57;;;;;;;23.50;22.67;;;17.70;99.90;;;;;;5075185;28;20203;-66
2023/08/08 06:40:24;;;;;;;18.33;17.65;;;17.70;99.90;;;;;;5073910;28;20595;-66
2023/08/08 06:42:51;;;;;;;18.33;17.70;;;17.80;99.90;;;;;;5075548;28;20306;-66
2023/08/08 06:45:18;;;;;;;17.93;17.30;;;18.00;99.90;;;;;;5075155;28;20223;-64
2023/08/08 06:47:45;;;;;;;14.90;14.40;;;18.10;99.90;;;;;;5072779;28;20203;-66
2023/08/08 06:50:12;;;;;;;14.80;14.30;;;18.20;99.90;;;;;;5072063;28;20264;-67
2023/08/08 06:52:40;;;;;;;10.23;9.83;;;18.30;99.90;;;;;;5072863;28;20207;-66
2023/08/08 06:55:07;;;;;;;8.57;8.27;;;18.30;99.90;;;;;;5072969;28;20261;-67
2023/08/08 06:57:35;;;;;;;8.40;8.10;;;18.40;99.90;;;;;;5072282;28;20211;-67
2023/08/08 07:00:05;;;;;;;7.07;6.87;;;18.50;99.90;;;;;;5071572;28;20230;-65
2023/08/08 07:02:32;;;;;;;7.50;7.10;;;18.60;99.90;;;;;;5072914;28;20288;-66
2023/08/08 07:04:59;;;;;;;6.95;6.65;;;18.80;99.90;;;;;;5076892;28;20583;-65
2023/08/08 07:07:26;;;;;;;7.28;7.05;;;18.90;99.90;;;;;;5073959;28;20207;-67
2023/08/08 07:09:54;;;;;;;7.30;7.10;;;19.10;99.90;;;;;;5071680;28;20688;-65
2023/08/08 07:12:21;;;;;;;7.35;7.13;;;19.40;99.90;;;;;;5072361;28;20226;-66
2023/08/08 07:14:47;;;;;;;8.50;8.20;;;19.40;99.90;;;;;;5072813;28;20314;-67
2023/08/08 07:17:15;;;;;;;7.80;7.50;;;19.50;99.90;;;;;;5078365;28;20203;-68
2023/08/08 07:19:42;;;;;;;8.20;7.90;;;19.60;99.90;;;;;;5074624;28;20774;-67
2023/08/08 07:22:09;;;;;;;8.30;8.00;;;19.70;99.90;;;;;;5077826;28;20211;-67
2023/08/08 07:24:38;;;;;;;8.48;8.18;;;19.80;99.90;;;;;;5078457;28;20199;-65
2023/08/08 07:27:07;;;;;;;8.10;7.80;;;19.80;99.90;;;;;;5073365;28;20206;-68
2023/08/08 07:29:33;;;;;;;7.50;7.30;;;19.80;99.90;;;;;;5072340;28;20214;-65
2023/08/08 07:32:04;;;;;;;7.80;7.60;;;19.80;99.90;;;;;;5073320;28;20209;-68
2023/08/08 07:34:32;;;;;;;7.63;7.40;;;19.70;99.90;;;;;;5073224;28;20283;-67
2023/08/08 07:36:58;;;;;;;7.20;7.00;;;19.80;99.90;;;;;;5073691;28;20212;-67
2023/08/08 07:39:25;;;;;;;7.20;7.00;;;20.00;99.90;;;;;;5072252;28;20229;-67
2023/08/08 07:41:53;;;;;;;7.50;7.10;;;20.20;99.90;;;;;;5072979;28;20609;-65
2023/08/08 07:44:21;;;;;;;7.38;7.15;;;20.50;99.90;;;;;;5072607;28;20230;-66
2023/08/08 07:46:48;;;;;;;8.63;8.32;;;20.50;99.90;;;;;;5070755;28;20696;-67
2023/08/08 07:49:15;;;;;;;8.00;7.70;;;20.50;99.90;;;;;;5070380;28;20195;-66
2023/08/08 07:51:41;;;;;;;7.95;7.65;;;20.60;99.90;;;;;;5071480;28;20210;-67
2023/08/08 07:54:10;;;;;;;8.48;8.18;;;20.80;99.90;;;;;;5071719;28;20221;-66
2023/08/08 07:56:37;;;;;;;9.05;8.75;;;20.80;99.90;;;;;;5071374;28;20230;-66
2023/08/08 07:59:05;;;;;;;8.90;8.60;;;20.80;99.90;;;;;;5070521;28;20727;-66
2023/08/08 08:01:33;;;;;;;8.02;7.72;;;20.90;99.90;;;;;;5071396;28;20211;-67
2023/08/08 08:04:00;;;;;;;8.05;7.78;;;21.00;99.90;;;;;;5071593;28;20214;-66
2023/08/08 08:06:27;;;;;;;7.93;7.63;;;21.10;99.90;;;;;;5071116;28;20227;-67
2023/08/08 08:08:53;;;;;;;9.90;9.57;;;21.30;99.90;;;;;;5071928;28;20262;-66
2023/08/08 08:11:20;;;;;;;8.05;7.75;;;21.30;99.90;;;;;;5077406;28;20708;-65
2023/08/08 08:13:47;;;;;;;7.47;7.28;;;21.20;99.90;;;;;;5071479;28;20328;-67
2023/08/08 08:16:14;;;;;;;7.63;7.32;;;21.30;99.90;;;;;;5089273;22;20236;-67
2023/08/08 08:18:42;;;;;;;7.60;7.40;;;21.30;99.90;;;;;;5052147;28;20211;-66
2023/08/08 08:21:09;;;;;;;7.63;7.43;;;21.20;99.90;;;;;;5050315;28;20647;-66
2023/08/08 08:23:36;;;;;;;7.65;7.35;;;21.30;99.90;;;;;;5050624;28;20207;-66
2023/08/08 08:26:03;;;;;;;7.55;7.35;;;21.40;99.90;;;;;;5050807;28;20713;-67
2023/08/08 08:28:29;;;;;;;8.20;7.90;;;21.60;99.90;;;;;;5053204;28;20204;-65
2023/08/08 08:30:56;;;;;;;8.45;8.15;;;21.90;99.90;;;;;;5051582;28;20202;-64
2023/08/08 08:33:23;;;;;;;9.13;8.82;;;22.10;99.90;;;;;;5051834;28;20606;-66
2023/08/08 08:35:51;;;;;;;9.10;8.80;;;22.30;99.90;;;;;;5051153;28;20227;-67
2023/08/08 08:38:18;;;;;;;9.63;9.32;;;22.30;99.90;;;;;;5051608;28;20585;-65
2023/08/08 08:40:48;;;;;;;8.98;8.68;;;22.30;99.90;;;;;;5050304;28;20246;-65
2023/08/08 08:43:16;;;;;;;9.20;8.90;;;22.30;99.90;;;;;;5051034;28;20208;-66
2023/08/08 08:45:46;;;;;;;10.02;9.73;;;22.20;99.90;;;;;;5050403;28;20227;-67
2023/08/08 08:48:15;;;;;;;9.93;9.63;;;22.40;99.90;;;;;;5049529;28;20204;-65
2023/08/08 08:50:44;;;;;;;9.97;9.57;;;22.40;99.90;;;;;;5051010;28;20204;-66
2023/08/08 08:53:14;;;;;;;9.63;9.32;;;22.50;99.90;;;;;;5051091;28;20212;-67
2023/08/08 08:55:41;;;;;;;9.52;9.23;;;22.40;99.90;;;;;;5050737;28;20250;-65
2023/08/08 08:58:08;;;;;;;9.88;9.48;;;22.40;99.90;;;;;;5051278;28;20204;-66
2023/08/08 09:00:36;;;;;;;9.57;9.27;;;22.60;99.90;;;;;;5050025;28;20261;-67
2023/08/08 09:03:04;;;;;;;10.40;10.10;;;22.70;99.90;;;;;;5050580;28;20579;-66
2023/08/08 09:05:32;;;;;;;10.27;9.98;;;22.80;99.90;;;;;;5050969;28;20255;-67
2023/08/08 09:07:59;;;;;;;10.93;10.52;;;22.90;99.90;;;;;;5052598;28;20227;-68
2023/08/08 09:10:31;;;;;;;9.95;9.65;;;22.80;99.90;;;;;;5052013;28;20203;-65
2023/08/08 09:12:58;;;;;;;10.23;9.93;;;22.80;99.90;;;;;;5049176;28;20447;-67
2023/08/08 09:15:24;;;;;;;10.63;10.23;;;22.80;99.90;;;;;;5050035;28;20234;-67
2023/08/08 09:17:51;;;;;;;10.20;9.90;;;22.80;99.90;;;;;;5049912;28;20211;-67
2023/08/08 09:20:18;;;;;;;10.35;10.05;;;22.80;99.90;;;;;;5048659;28;20259;-67
2023/08/08 09:22:45;;;;;;;9.45;9.15;;;22.90;99.90;;;;;;5049489;28;20206;-67
2023/08/08 09:25:12;;;;;;;10.27;9.98;;;22.80;99.90;;;;;;5048940;28;20204;-66
2023/08/08 09:27:42;;;;;;;10.68;10.27;;;22.60;99.90;;;;;;5049294;28;20252;-66
2023/08/08 09:30:11;;;;;;;10.43;10.02;;;22.70;99.90;;;;;;5048847;28;20199;-65
2023/08/08 09:32:38;;;;;;;10.82;10.43;;;22.70;99.90;;;;;;5049234;28;20207;-66
2023/08/08 09:35:09;;;;;;;10.82;10.43;;;22.70;99.90;;;;;;5049445;28;20200;-67
2023/08/08 09:37:36;;;;;;;10.60;10.20;;;22.70;99.90;;;;;;5048971;28;20573;-67
2023/08/08 09:40:05;;;;;;;10.30;9.90;;;22.90;99.90;;;;;;5048499;28;20227;-67
2023/08/08 09:42:32;;;;;;;9.55;9.25;;;23.10;99.90;;;;;;5049918;28;20317;-67
2023/08/08 09:45:00;;;;;;;10.13;9.73;;;23.20;99.90;;;;;;5049552;28;20204;-67
2023/08/08 09:47:30;;;;;;;10.18;9.85;;;23.40;99.90;;;;;;5050750;28;20211;-66
2023/08/08 09:49:59;;;;;;;9.48;9.18;;;23.50;99.90;;;;;;5052850;28;20273;-65
2023/08/08 09:52:28;;;;;;;9.32;9.02;;;23.60;99.90;;;;;;5054604;28;20210;-68
2023/08/08 09:54:55;;;;;;;9.18;8.88;;;23.60;99.90;;;;;;5056133;28;20204;-66
2023/08/08 09:57:23;;;;;;;8.80;8.50;;;23.60;99.90;;;;;;5058601;28;20637;-66
2023/08/08 09:59:51;;;;;;;9.65;9.35;;;23.70;99.90;;;;;;5065131;28;20288;-67
2023/08/08 10:02:20;;;;;;;11.00;10.60;;;23.90;99.90;;;;;;5067567;28;20271;-67
2023/08/08 10:04:48;;;;;;;9.40;9.10;;;24.10;99.90;;;;;;5054939;28;20218;-66
2023/08/08 10:07:15;;;;;;;12.32;11.88;;;24.20;99.90;;;;;;5054350;28;20788;-66
2023/08/08 10:09:42;;;;;;;18.92;18.13;;;23.60;99.90;;;;;;5053031;28;20207;-67
2023/08/08 10:12:09;;;;;;;9.50;9.20;;;23.30;99.90;;;;;;5052963;28;20302;-68
2023/08/08 10:14:37;;;;;;;9.20;8.90;;;23.40;99.90;;;;;;5054876;28;20200;-67
2023/08/08 10:17:05;;;;;;;9.40;9.10;;;23.20;99.90;;;;;;5054395;28;20285;-67
2023/08/08 10:19:33;;;;;;;9.00;8.70;;;23.00;99.90;;;;;;5054850;28;20204;-66
2023/08/08 10:22:04;;;;;;;9.02;8.73;;;22.90;99.90;;;;;;5054238;28;20269;-67
2023/08/08 10:24:34;;;;;;;8.55;8.25;;;23.20;99.90;;;;;;5053965;28;20219;-67
2023/08/08 10:27:02;;;;;;;9.82;9.43;;;23.30;99.90;;;;;;5053533;28;20752;-66
2023/08/08 10:29:30;;;;;;;8.98;8.68;;;23.30;99.90;;;;;;5053772;28;20275;-67
2023/08/08 10:32:00;;;;;;;10.30;9.90;;;23.30;99.90;;;;;;5057710;28;20210;-66
2023/08/08 10:34:36;;;;;;;10.20;9.80;;;23.20;99.90;;;;;;5060408;28;20227;-67
2023/08/08 10:37:05;;;;;;;8.88;8.57;;;23.30;99.90;;;;;;5058908;28;20259;-67
2023/08/08 10:39:32;;;;;;;9.02;8.73;;;23.60;99.90;;;;;;5054604;28;20226;-66
2023/08/08 10:42:04;;;;;;;9.68;9.38;;;23.50;99.90;;;;;;5054703;28;20233;-67
2023/08/08 10:44:32;;;;;;;8.68;8.38;;;23.50;99.90;;;;;;5054467;28;20296;-68
2023/08/08 10:47:01;;;;;;;8.32;8.02;;;23.50;99.90;;;;;;5053790;28;20243;-66
2023/08/08 10:49:28;;;;;;;8.60;8.30;;;23.70;99.90;;;;;;5053367;28;20579;-66
2023/08/08 10:51:55;;;;;;;9.85;9.50;;;24.00;99.90;;;;;;5053965;28;20468;-65
2023/08/08 10:54:27;;;;;;;8.48;8.18;;;24.10;99.90;;;;;;5053243;28;20208;-65
2023/08/08 10:56:55;;;;;;;8.27;7.97;;;24.20;99.90;;;;;;5052744;28;20297;-65
2023/08/08 10:59:26;;;;;;;8.52;8.23;;;24.20;99.90;;;;;;5051748;28;20294;-66
2023/08/08 11:01:53;;;;;;;8.10;7.80;;;24.20;99.90;;;;;;5052999;28;20444;-66
2023/08/08 11:04:23;;;;;;;9.13;8.82;;;24.30;99.90;;;;;;5053425;28;20212;-67
2023/08/08 11:06:50;;;;;;;8.48;8.18;;;24.30;99.90;;;;;;5052822;28;20319;-66
2023/08/08 11:09:17;;;;;;;9.88;9.57;;;24.30;99.90;;;;;;5052246;28;20207;-67
2023/08/08 11:11:46;;;;;;;8.88;8.57;;;24.30;99.90;;;;;;5056714;28;20200;-67
2023/08/08 11:14:15;;;;;;;9.05;8.70;;;24.20;99.90;;;;;;5055093;28;20204;-67
2023/08/08 11:16:42;;;;;;;9.30;9.00;;;24.20;99.90;;;;;;5052644;28;20731;-67
2023/08/08 11:19:10;;;;;;;9.75;9.35;;;24.30;99.90;;;;;;5052553;28;20204;-67
2023/08/08 11:21:38;;;;;;;9.48;9.18;;;24.20;99.90;;;;;;5052635;28;20273;-66
2023/08/08 11:24:06;;;;;;;9.25;8.95;;;24.30;99.90;;;;;;5053389;28;20744;-66
2023/08/08 11:26:33;;;;;;;8.85;8.55;;;24.30;99.90;;;;;;5053192;28;20598;-67
2023/08/08 11:29:03;;;;;;;9.02;8.73;;;24.30;99.90;;;;;;5053367;28;20211;-65
2023/08/08 11:31:30;;;;;;;9.18;8.88;;;24.40;99.90;;;;;;5052502;28;20214;-66
2023/08/08 11:33:59;;;;;;;9.52;9.23;;;24.40;99.90;;;;;;5052566;28;20206;-66
2023/08/08 11:36:26;;;;;;;13.77;13.27;;;24.50;99.90;;;;;;5051866;28;20224;-67
2023/08/08 11:38:54;;;;;;;9.63;9.32;;;24.40;99.90;;;;;;5052342;28;20211;-66
2023/08/08 11:41:24;;;;;;;9.23;8.93;;;24.20;99.90;;;;;;5051614;28;20620;-67
2023/08/08 11:43:52;;;;;;;9.35;9.05;;;24.20;99.90;;;;;;5052176;28;20310;-68
2023/08/08 11:46:24;;;;;;;9.18;8.88;;;24.40;99.90;;;;;;5051920;28;20224;-67
2023/08/08 11:48:51;;;;;;;9.40;9.10;;;24.70;99.90;;;;;;5052670;28;20216;-66
2023/08/08 11:51:18;;;;;;;9.63;9.32;;;24.80;99.90;;;;;;5051465;28;20208;-66
2023/08/08 11:53:52;;;;;;;9.55;9.25;;;24.80;99.90;;;;;;5052594;28;20206;-67
2023/08/08 11:56:20;;;;;;;9.02;8.73;;;24.70;99.90;;;;;;5053370;28;20227;-67
2023/08/08 11:58:48;;;;;;;10.00;9.65;;;24.70;99.90;;;;;;5058553;28;20295;-67
2023/08/08 12:01:14;;;;;;;9.15;8.85;;;24.50;99.90;;;;;;5057959;28;20729;-66
2023/08/08 12:03:43;;;;;;;9.63;9.23;;;24.40;99.90;;;;;;5059960;28;20200;-68
2023/08/08 12:06:14;;;;;;;9.50;9.20;;;24.40;99.90;;;;;;5053773;28;20668;-66
2023/08/08 12:08:43;;;;;;;9.00;8.70;;;24.50;99.90;;;;;;5051927;28;20289;-67
2023/08/08 12:11:10;;;;;;;9.15;8.85;;;24.70;99.90;;;;;;5051065;28;20200;-68
2023/08/08 12:13:39;;;;;;;9.98;9.65;;;24.80;99.90;;;;;;5052654;28;20199;-67
2023/08/08 12:16:06;;;;;;;9.55;9.25;;;24.90;99.90;;;;;;5052273;28;20232;-66
2023/08/08 12:18:34;;;;;;;9.30;9.00;;;25.00;99.90;;;;;;5052486;28;20674;-66
2023/08/08 12:21:02;;;;;;;9.30;9.00;;;24.90;99.90;;;;;;5051216;28;20234;-66
2023/08/08 12:23:29;;;;;;;11.32;10.93;;;25.00;99.90;;;;;;5050802;28;20215;-67
2023/08/08 12:25:57;;;;;;;9.77;9.48;;;25.00;99.90;;;;;;5050347;28;20238;-68
2023/08/08 12:28:24;;;;;;;9.77;9.48;;;25.10;99.90;;;;;;5050394;28;20208;-66
2023/08/08 12:30:51;;;;;;;10.45;10.05;;;25.20;99.90;;;;;;5050188;28;20720;-67
2023/08/08 12:33:18;;;;;;;9.98;9.68;;;25.30;99.90;;;;;;5050304;28;20204;-67
2023/08/08 12:35:45;;;;;;;20.88;20.02;;;25.20;99.90;;;;;;5050080;28;20223;-67
2023/08/08 12:38:14;;;;;;;9.57;9.27;;;24.80;99.90;;;;;;5049693;28;20210;-67